Time;durP1;ratioP1;P1;durP2;ratioP2;P2;SDS_P1;SDS_P2;PMS_P1;PMS_P2;Temp;Humidity;BMP_temperature;BMP_pressure;BME280_temperature;BME280_humidity;BME280_pressure;Samples;Min_cycle;Max_cycle;Signal;HPM_P1;HPM_P2
2022/08/01 00:01:51;;;;;;;3.43;3.23;;;22.50;99.90;;;;;;5074207;28;20622;-72
2022/08/01 00:04:17;;;;;;;3.80;3.50;;;22.50;99.90;;;;;;5073635;28;20575;-72
2022/08/01 00:06:44;;;;;;;3.30;3.10;;;22.40;99.90;;;;;;5073730;28;20625;-72
2022/08/01 00:09:11;;;;;;;3.27;2.97;;;22.30;99.90;;;;;;5073710;28;20639;-72
2022/08/01 00:11:37;;;;;;;2.80;2.70;;;22.20;99.90;;;;;;5072454;28;20586;-72
2022/08/01 00:14:04;;;;;;;3.40;3.20;;;22.20;99.90;;;;;;5073421;28;20630;-72
2022/08/01 00:16:31;;;;;;;7.60;3.30;;;22.10;99.90;;;;;;5073539;28;20578;-72
2022/08/01 00:18:57;;;;;;;2.87;2.77;;;22.20;99.90;;;;;;5073849;28;21045;-72
2022/08/01 00:21:23;;;;;;;3.53;3.10;;;22.00;99.90;;;;;;5073575;28;20984;-72
2022/08/01 00:23:50;;;;;;;3.20;3.00;;;21.90;99.90;;;;;;5073483;28;20634;-72
2022/08/01 00:26:16;;;;;;;3.10;2.90;;;21.80;99.90;;;;;;5073327;28;20897;-72
2022/08/01 00:28:43;;;;;;;3.23;2.87;;;21.80;99.90;;;;;;5073346;28;21202;-72
2022/08/01 00:31:09;;;;;;;3.50;3.30;;;21.80;99.90;;;;;;5073144;28;20594;-72
2022/08/01 00:33:36;;;;;;;3.30;3.00;;;21.60;99.90;;;;;;5073564;28;20584;-72
2022/08/01 00:36:02;;;;;;;4.07;3.00;;;21.70;99.90;;;;;;5073512;28;20602;-72
2022/08/01 00:38:29;;;;;;;2.90;2.80;;;21.60;99.90;;;;;;5073198;28;20578;-72
2022/08/01 00:40:57;;;;;;;2.60;2.43;;;21.70;99.90;;;;;;5072993;28;20574;-72
2022/08/01 00:43:23;;;;;;;2.93;2.57;;;21.80;99.90;;;;;;5073306;28;20680;-71
2022/08/01 00:45:50;;;;;;;2.73;2.53;;;21.80;99.90;;;;;;5073661;28;20631;-71
2022/08/01 00:48:16;;;;;;;3.47;3.00;;;21.90;99.90;;;;;;5073065;28;20643;-72
2022/08/01 00:50:43;;;;;;;2.87;2.67;;;22.00;99.90;;;;;;5073415;28;20567;-72
2022/08/01 00:53:10;;;;;;;2.90;2.70;;;22.00;99.90;;;;;;5071741;28;20962;-71
2022/08/01 00:55:36;;;;;;;3.53;3.23;;;22.00;99.90;;;;;;5073286;28;20638;-71
2022/08/01 00:58:03;;;;;;;2.90;2.70;;;22.00;99.90;;;;;;5073400;28;20656;-71
2022/08/01 01:00:29;;;;;;;3.03;2.87;;;21.90;99.90;;;;;;5073177;28;20586;-70
2022/08/01 01:02:56;;;;;;;2.80;2.70;;;21.80;99.90;;;;;;5073156;28;20578;-71
2022/08/01 01:05:23;;;;;;;2.70;2.60;;;21.80;99.90;;;;;;5072821;28;21212;-71
2022/08/01 01:08:08;;;;;;;3.30;3.10;;;21.80;99.90;;;;;;5072956;28;20567;-71
2022/08/01 01:10:43;;;;;;;3.27;2.97;;;21.70;99.90;;;;;;5073048;28;20579;-72
2022/08/01 01:13:35;;;;;;;3.00;2.70;;;21.60;99.90;;;;;;5072894;28;20618;-70
2022/08/01 01:16:14;;;;;;;2.77;2.67;;;21.60;99.90;;;;;;5072851;28;20997;-70
2022/08/01 01:18:52;;;;;;;3.70;2.77;;;21.60;99.90;;;;;;5073232;28;20982;-70
2022/08/01 01:21:19;;;;;;;3.83;2.80;;;21.60;99.90;;;;;;5072893;28;20661;-70
2022/08/01 01:24:17;;;;;;;2.70;2.50;;;21.60;99.90;;;;;;5073057;28;20637;-70
2022/08/01 01:27:06;;;;;;;2.70;2.50;;;21.70;99.90;;;;;;5072972;28;20906;-70
2022/08/01 01:29:46;;;;;;;3.13;2.93;;;21.60;99.90;;;;;;5075209;28;20597;-70
2022/08/01 01:32:15;;;;;;;2.93;2.73;;;21.70;99.90;;;;;;5076744;28;20661;-70
2022/08/01 01:34:45;;;;;;;3.00;2.80;;;21.60;99.90;;;;;;5077041;28;20641;-70
2022/08/01 01:37:17;;;;;;;4.20;2.80;;;21.60;99.90;;;;;;5077054;28;20639;-70
2022/08/01 01:39:47;;;;;;;2.80;2.70;;;21.60;99.90;;;;;;5076654;28;20586;-70
2022/08/01 01:42:16;;;;;;;4.80;3.00;;;21.60;99.90;;;;;;5076849;28;20595;-70
2022/08/01 01:44:44;;;;;;;3.10;3.00;;;21.60;99.90;;;;;;5076891;28;20582;-70
2022/08/01 01:47:13;;;;;;;3.83;3.10;;;21.60;99.90;;;;;;5076535;28;20579;-70
2022/08/01 01:49:43;;;;;;;3.00;2.80;;;21.60;99.90;;;;;;5076824;28;20659;-73
2022/08/01 01:52:15;;;;;;;3.23;2.93;;;21.60;99.90;;;;;;5074855;28;20614;-72
2022/08/01 01:54:47;;;;;;;3.10;2.90;;;21.60;99.90;;;;;;5076542;28;20634;-72
2022/08/01 01:57:20;;;;;;;3.37;2.57;;;21.50;99.90;;;;;;5076429;28;20583;-72
2022/08/01 01:59:49;;;;;;;2.90;2.70;;;21.40;99.90;;;;;;5074871;28;20571;-72
2022/08/01 02:02:17;;;;;;;2.83;2.63;;;21.30;99.90;;;;;;5075802;28;20927;-72
2022/08/01 02:04:46;;;;;;;2.73;2.53;;;21.40;99.90;;;;;;5076089;28;20646;-72
2022/08/01 02:07:17;;;;;;;3.27;2.97;;;21.40;99.90;;;;;;5076205;28;21168;-72
2022/08/01 02:09:45;;;;;;;2.50;2.33;;;21.40;99.90;;;;;;5076308;28;21214;-72
2022/08/01 02:12:12;;;;;;;2.97;2.77;;;21.40;99.90;;;;;;5076451;28;20581;-72
2022/08/01 02:14:40;;;;;;;2.97;2.83;;;21.30;99.90;;;;;;5076298;28;21224;-72
2022/08/01 02:17:10;;;;;;;3.10;2.90;;;21.10;99.90;;;;;;5076138;28;20658;-72
2022/08/01 02:19:37;;;;;;;3.43;3.17;;;21.00;99.90;;;;;;5076053;28;20582;-72
2022/08/01 02:22:13;;;;;;;2.67;2.53;;;20.90;99.90;;;;;;5075676;28;20628;-72
2022/08/01 02:25:00;;;;;;;2.83;2.63;;;20.80;99.90;;;;;;5075733;28;20641;-72
2022/08/01 02:27:34;;;;;;;3.03;2.83;;;20.70;99.90;;;;;;5076100;28;20574;-72
2022/08/01 02:30:06;;;;;;;2.63;2.50;;;20.70;99.90;;;;;;5076298;28;21018;-72
2022/08/01 02:32:47;;;;;;;3.50;3.00;;;20.60;99.90;;;;;;5058607;28;20621;-72
2022/08/01 02:35:20;;;;;;;3.30;3.03;;;20.60;99.90;;;;;;5076464;28;20633;-72
2022/08/01 02:37:48;;;;;;;3.30;2.90;;;20.60;99.90;;;;;;5074808;28;20618;-72
2022/08/01 02:40:17;;;;;;;4.23;2.93;;;20.40;99.90;;;;;;5075597;28;20606;-72
2022/08/01 02:42:48;;;;;;;3.07;2.73;;;20.20;99.90;;;;;;5076158;28;20575;-72
2022/08/01 02:45:18;;;;;;;5.33;2.90;;;19.90;99.90;;;;;;5076142;28;20594;-72
2022/08/01 02:47:47;;;;;;;3.10;2.87;;;19.80;99.90;;;;;;5075739;28;20557;-72
2022/08/01 02:50:16;;;;;;;3.47;3.17;;;19.90;99.90;;;;;;5075118;28;20925;-72
2022/08/01 02:52:45;;;;;;;3.20;3.00;;;20.00;99.90;;;;;;5074419;28;20664;-72
2022/08/01 02:55:13;;;;;;;3.40;3.20;;;20.00;99.90;;;;;;5075154;28;21228;-72
2022/08/01 02:57:42;;;;;;;3.10;2.90;;;20.00;99.90;;;;;;5075183;28;20643;-72
2022/08/01 03:00:09;;;;;;;2.87;2.50;;;20.10;99.90;;;;;;5075483;28;20635;-72
2022/08/01 03:02:36;;;;;;;3.43;3.23;;;20.20;99.90;;;;;;5074920;28;21174;-72
2022/08/01 03:05:04;;;;;;;3.27;3.17;;;20.10;99.90;;;;;;5074645;28;20662;-71
2022/08/01 03:07:32;;;;;;;4.40;3.63;;;19.90;99.90;;;;;;5074429;28;20695;-72
2022/08/01 03:10:01;;;;;;;3.53;3.00;;;19.90;99.90;;;;;;5075369;28;20634;-71
2022/08/01 03:12:32;;;;;;;3.97;3.30;;;19.70;99.90;;;;;;5075176;28;20688;-72
2022/08/01 03:15:01;;;;;;;3.50;3.20;;;19.70;99.90;;;;;;5074884;28;21192;-71
2022/08/01 03:17:28;;;;;;;3.97;2.83;;;19.80;99.90;;;;;;5074781;28;20891;-71
2022/08/01 03:19:58;;;;;;;6.23;3.07;;;19.80;99.90;;;;;;5075219;28;20740;-73
2022/08/01 03:22:27;;;;;;;3.23;3.00;;;19.70;99.90;;;;;;5074510;28;20579;-72
2022/08/01 03:24:56;;;;;;;3.30;3.10;;;19.70;99.90;;;;;;5074572;28;20650;-72
2022/08/01 03:27:24;;;;;;;3.73;3.47;;;19.70;99.90;;;;;;5074610;28;21137;-73
2022/08/01 03:29:51;;;;;;;3.30;3.10;;;19.70;99.90;;;;;;5073119;28;20626;-73
2022/08/01 03:32:21;;;;;;;2.97;2.77;;;19.70;99.90;;;;;;5074708;28;20545;-73
2022/08/01 03:34:48;;;;;;;3.07;2.87;;;19.70;99.90;;;;;;5074751;28;20634;-73
2022/08/01 03:37:14;;;;;;;3.57;3.23;;;19.40;99.90;;;;;;5074261;28;20590;-73
2022/08/01 03:39:48;;;;;;;3.97;3.23;;;19.40;99.90;;;;;;5074352;28;20618;-73
2022/08/01 03:42:20;;;;;;;4.53;3.50;;;19.40;99.90;;;;;;5074343;28;21003;-73
2022/08/01 03:44:53;;;;;;;3.47;3.17;;;19.50;99.90;;;;;;5074204;28;20628;-73
2022/08/01 03:47:24;;;;;;;3.63;3.13;;;19.50;99.90;;;;;;5074007;28;20578;-73
2022/08/01 03:49:52;;;;;;;3.10;3.00;;;19.40;99.90;;;;;;5074362;28;20553;-73
2022/08/01 03:52:19;;;;;;;3.30;3.00;;;19.40;99.90;;;;;;5073164;28;20618;-73
2022/08/01 03:54:49;;;;;;;3.07;2.87;;;19.20;99.90;;;;;;5074026;28;21182;-73
2022/08/01 03:57:16;;;;;;;8.23;3.70;;;19.10;99.90;;;;;;5074556;28;20632;-73
2022/08/01 03:59:44;;;;;;;6.30;3.00;;;18.90;99.90;;;;;;5073989;28;20649;-73
2022/08/01 04:02:14;;;;;;;3.33;3.03;;;18.90;99.90;;;;;;5073975;28;20575;-73
2022/08/01 04:04:41;;;;;;;3.37;3.17;;;18.90;99.90;;;;;;5073404;28;20699;-73
2022/08/01 04:07:32;;;;;;;3.20;3.00;;;18.90;99.90;;;;;;5073859;28;21097;-72
2022/08/01 04:09:59;;;;;;;3.40;3.20;;;18.90;99.90;;;;;;5070895;28;20634;-73
2022/08/01 04:12:25;;;;;;;3.60;2.97;;;18.90;99.90;;;;;;5072497;28;20619;-73
2022/08/01 04:14:51;;;;;;;2.87;2.73;;;18.90;99.90;;;;;;5073940;28;20660;-73
2022/08/01 04:17:18;;;;;;;3.50;3.20;;;18.90;99.90;;;;;;5073943;28;20630;-73
2022/08/01 04:19:45;;;;;;;3.23;3.07;;;18.90;99.90;;;;;;5073963;28;20684;-73
2022/08/01 04:22:14;;;;;;;4.03;3.60;;;18.90;99.90;;;;;;5074000;28;20582;-73
2022/08/01 04:24:50;;;;;;;3.20;3.00;;;18.90;99.90;;;;;;5072546;28;20988;-73
2022/08/01 04:27:25;;;;;;;3.73;3.43;;;18.80;99.90;;;;;;5073608;28;20959;-73
2022/08/01 04:29:55;;;;;;;6.00;3.30;;;18.80;99.90;;;;;;5073418;28;20586;-73
2022/08/01 04:32:23;;;;;;;6.40;2.80;;;18.70;99.90;;;;;;5073160;28;20697;-73
2022/08/01 04:34:50;;;;;;;3.23;3.03;;;18.70;99.90;;;;;;5073257;28;20656;-73
2022/08/01 04:37:19;;;;;;;4.63;3.33;;;18.60;99.90;;;;;;5073445;28;20990;-72
2022/08/01 04:39:46;;;;;;;3.47;3.17;;;18.60;99.90;;;;;;5073328;28;20974;-73
2022/08/01 04:42:15;;;;;;;3.87;3.53;;;18.70;99.90;;;;;;5073720;28;20622;-73
2022/08/01 04:44:41;;;;;;;3.60;3.40;;;18.80;99.90;;;;;;5073909;28;20630;-73
2022/08/01 04:47:09;;;;;;;4.93;3.13;;;18.80;99.90;;;;;;5073703;28;20626;-73
2022/08/01 04:49:36;;;;;;;4.90;3.20;;;18.90;99.90;;;;;;5073566;28;20641;-72
2022/08/01 04:52:05;;;;;;;3.90;3.50;;;19.00;99.90;;;;;;5073352;28;20582;-72
2022/08/01 04:54:37;;;;;;;3.53;3.23;;;19.00;99.90;;;;;;5073363;28;20617;-72
2022/08/01 04:57:05;;;;;;;3.87;3.67;;;18.90;99.90;;;;;;5073440;28;21290;-73
2022/08/01 04:59:40;;;;;;;3.33;3.07;;;19.00;99.90;;;;;;5073362;28;20961;-72
2022/08/01 05:02:07;;;;;;;5.87;2.83;;;19.10;99.90;;;;;;5073492;28;20585;-73
2022/08/01 05:04:34;;;;;;;3.60;3.37;;;19.20;99.90;;;;;;5073054;28;20646;-73
2022/08/01 05:07:00;;;;;;;3.43;2.90;;;19.20;99.90;;;;;;5071994;28;20672;-73
2022/08/01 05:09:27;;;;;;;3.70;2.83;;;19.50;99.90;;;;;;5072753;28;20629;-73
2022/08/01 05:11:53;;;;;;;3.57;3.00;;;19.70;99.90;;;;;;5073368;28;21105;-73
2022/08/01 05:14:20;;;;;;;3.90;3.60;;;19.90;99.90;;;;;;5073121;28;20621;-73
2022/08/01 05:16:47;;;;;;;12.73;3.43;;;20.10;99.90;;;;;;5072265;28;20618;-72
2022/08/01 05:19:13;;;;;;;5.00;3.43;;;20.20;99.90;;;;;;5071601;28;20626;-73
2022/08/01 05:21:40;;;;;;;3.53;3.30;;;20.30;99.90;;;;;;5055243;28;20581;-73
2022/08/01 05:24:06;;;;;;;2.83;2.63;;;20.50;99.90;;;;;;5072923;28;20635;-73
2022/08/01 05:26:33;;;;;;;3.67;3.37;;;20.60;99.90;;;;;;5072984;28;20990;-73
2022/08/01 05:29:00;;;;;;;4.40;3.07;;;20.60;99.90;;;;;;5072474;28;20635;-73
2022/08/01 05:31:26;;;;;;;3.50;2.90;;;20.70;99.90;;;;;;5072757;28;20576;-73
2022/08/01 05:33:53;;;;;;;4.03;3.73;;;20.80;99.90;;;;;;5072741;28;20598;-73
2022/08/01 05:36:19;;;;;;;3.20;2.90;;;20.80;99.90;;;;;;5072654;28;20658;-73
2022/08/01 05:38:46;;;;;;;3.53;2.90;;;20.90;99.90;;;;;;5073006;28;20581;-73
2022/08/01 05:41:12;;;;;;;6.70;2.70;;;21.00;99.90;;;;;;5072447;28;21196;-73
2022/08/01 05:43:39;;;;;;;3.13;3.00;;;21.10;99.90;;;;;;5071696;28;20614;-78
2022/08/01 05:46:05;;;;;;;3.57;3.10;;;21.30;99.90;;;;;;5073037;28;20678;-73
2022/08/01 05:48:31;;;;;;;3.60;2.57;;;21.30;99.90;;;;;;5072197;28;20652;-74
2022/08/01 05:50:58;;;;;;;4.87;3.23;;;21.40;99.90;;;;;;5072702;28;20977;-73
2022/08/01 05:53:25;;;;;;;3.10;2.80;;;21.60;99.90;;;;;;5072637;28;20579;-71
2022/08/01 05:55:51;;;;;;;3.60;2.90;;;21.70;99.90;;;;;;5072492;28;20665;-73
2022/08/01 05:58:18;;;;;;;4.13;2.40;;;21.90;99.90;;;;;;5073027;28;20578;-72
2022/08/01 06:00:44;;;;;;;2.93;2.80;;;21.90;99.90;;;;;;5072920;28;20610;-73
2022/08/01 06:03:11;;;;;;;5.27;3.07;;;21.90;99.90;;;;;;5072992;28;20567;-72
2022/08/01 06:05:37;;;;;;;3.00;2.80;;;22.00;99.90;;;;;;5072050;28;21016;-76
2022/08/01 06:08:04;;;;;;;6.60;3.00;;;22.00;99.90;;;;;;5074429;28;20589;-75
2022/08/01 06:10:31;;;;;;;3.20;3.00;;;22.00;99.90;;;;;;5073547;28;20574;-74
2022/08/01 06:12:57;;;;;;;3.20;2.87;;;22.20;99.90;;;;;;5071873;28;20610;-75
2022/08/01 06:15:24;;;;;;;4.10;2.67;;;22.30;99.90;;;;;;5073516;28;20718;-72
2022/08/01 06:17:50;;;;;;;9.60;3.30;;;22.40;99.90;;;;;;5076532;28;20671;-75
2022/08/01 06:20:17;;;;;;;5.00;2.70;;;22.80;99.90;;;;;;5076998;28;20581;-75
2022/08/01 06:22:43;;;;;;;6.90;3.80;;;22.80;99.90;;;;;;5076376;28;20578;-74
2022/08/01 06:25:09;;;;;;;6.80;2.67;;;23.20;99.90;;;;;;5076310;28;20641;-74
2022/08/01 06:27:36;;;;;;;2.10;2.00;;;23.50;99.90;;;;;;5076357;28;20696;-76
2022/08/01 06:30:05;;;;;;;3.07;2.87;;;23.40;99.90;;;;;;5075734;28;21168;-75
2022/08/01 06:32:31;;;;;;;3.37;2.13;;;23.60;99.90;;;;;;5078307;28;20719;-76
2022/08/01 06:34:58;;;;;;;2.10;1.90;;;23.90;99.90;;;;;;5076319;28;21032;-74
2022/08/01 06:37:29;;;;;;;3.07;2.10;;;23.70;99.90;;;;;;5076056;28;20604;-74
2022/08/01 06:40:00;;;;;;;1.60;1.50;;;23.90;99.90;;;;;;5076274;28;20664;-74
2022/08/01 06:42:26;;;;;;;4.40;1.90;;;24.00;99.90;;;;;;5076803;28;20639;-75
2022/08/01 06:44:52;;;;;;;1.93;1.80;;;23.90;99.90;;;;;;5075759;28;20578;-74
2022/08/01 06:47:19;;;;;;;1.70;1.60;;;24.00;99.90;;;;;;5077307;28;20583;-75
2022/08/01 06:49:45;;;;;;;5.03;1.80;;;24.00;99.90;;;;;;5077229;28;20570;-76
2022/08/01 06:52:12;;;;;;;2.23;2.03;;;24.00;99.90;;;;;;5075642;28;20648;-73
2022/08/01 06:54:38;;;;;;;4.43;2.27;;;23.90;99.90;;;;;;5074465;28;20579;-75
2022/08/01 06:57:05;;;;;;;2.17;1.97;;;24.00;99.90;;;;;;5078898;28;20719;-76
2022/08/01 06:59:32;;;;;;;2.50;2.30;;;23.80;99.90;;;;;;5080716;28;20578;-75
2022/08/01 07:02:00;;;;;;;1.60;1.50;;;23.80;99.90;;;;;;5078156;28;20669;-73
2022/08/01 07:04:27;;;;;;;2.30;2.10;;;23.90;99.90;;;;;;5079640;28;20653;-76
2022/08/01 07:06:55;;;;;;;1.87;1.77;;;24.00;99.90;;;;;;5075248;28;20599;-73
2022/08/01 07:09:21;;;;;;;1.90;1.80;;;23.80;99.90;;;;;;5075533;28;21169;-72
2022/08/01 07:11:50;;;;;;;3.07;2.00;;;23.80;99.90;;;;;;5075723;28;20582;-75
2022/08/01 07:14:16;;;;;;;2.13;1.73;;;24.10;99.90;;;;;;5073993;28;21249;-74
2022/08/01 07:16:43;;;;;;;2.20;2.10;;;24.20;99.90;;;;;;5075154;28;21014;-75
2022/08/01 07:19:09;;;;;;;2.27;2.07;;;24.10;99.90;;;;;;5075379;28;20628;-76
2022/08/01 07:21:36;;;;;;;1.73;1.50;;;24.00;99.90;;;;;;5074021;28;20626;-74
2022/08/01 07:24:03;;;;;;;2.97;2.23;;;24.10;99.90;;;;;;5076134;28;21254;-77
2022/08/01 07:26:30;;;;;;;2.90;2.17;;;24.30;99.90;;;;;;5058025;28;20634;-76
2022/08/01 07:28:56;;;;;;;1.80;1.70;;;24.40;99.90;;;;;;5077134;28;20581;-78
2022/08/01 07:31:23;;;;;;;2.43;2.33;;;24.30;99.90;;;;;;5076121;28;20575;-75
2022/08/01 07:33:50;;;;;;;3.60;2.57;;;24.50;99.90;;;;;;5074776;28;20626;-73
2022/08/01 07:36:17;;;;;;;1.90;1.80;;;24.50;99.90;;;;;;5075124;28;20637;-73
2022/08/01 07:38:44;;;;;;;2.43;2.23;;;24.40;99.90;;;;;;5074724;28;20938;-74
2022/08/01 07:41:11;;;;;;;2.50;2.30;;;24.30;99.90;;;;;;5074936;28;20575;-73
2022/08/01 07:43:37;;;;;;;2.30;2.10;;;24.20;99.90;;;;;;5073040;28;20679;-73
2022/08/01 07:46:05;;;;;;;2.20;1.70;;;24.50;99.90;;;;;;5074148;28;21223;-74
2022/08/01 07:48:31;;;;;;;2.00;1.90;;;24.50;99.90;;;;;;5074122;28;20594;-76
2022/08/01 07:51:00;;;;;;;2.20;2.00;;;24.70;99.90;;;;;;5073479;28;20582;-73
2022/08/01 07:53:27;;;;;;;5.33;2.30;;;24.80;99.90;;;;;;5074957;28;20587;-74
2022/08/01 07:55:53;;;;;;;2.07;1.97;;;25.10;99.90;;;;;;5074759;28;20642;-75
2022/08/01 07:58:20;;;;;;;3.53;1.90;;;25.00;99.90;;;;;;5073179;28;20685;-76
2022/08/01 08:00:46;;;;;;;4.00;2.00;;;24.90;99.90;;;;;;5074431;28;21209;-76
2022/08/01 08:03:13;;;;;;;4.07;2.40;;;24.90;99.90;;;;;;5074899;28;20648;-74
2022/08/01 08:05:39;;;;;;;3.30;1.90;;;25.30;99.90;;;;;;5074213;28;20719;-73
2022/08/01 08:08:07;;;;;;;2.70;1.77;;;25.60;99.90;;;;;;5073573;28;20579;-73
2022/08/01 08:10:34;;;;;;;2.33;1.87;;;25.50;99.90;;;;;;5072972;28;20747;-71
2022/08/01 08:13:01;;;;;;;1.47;1.37;;;25.60;99.90;;;;;;5074090;28;20596;-73
2022/08/01 08:15:28;;;;;;;2.30;2.10;;;25.50;99.90;;;;;;5073747;28;20661;-73
2022/08/01 08:17:55;;;;;;;7.27;1.80;;;25.60;99.90;;;;;;5074492;28;20579;-75
2022/08/01 08:20:24;;;;;;;1.50;1.37;;;25.60;99.90;;;;;;5073329;28;20587;-75
2022/08/01 08:22:51;;;;;;;1.90;1.70;;;25.60;99.90;;;;;;5073577;28;20691;-75
2022/08/01 08:25:21;;;;;;;3.97;3.57;;;26.00;99.90;;;;;;5073840;28;20715;-75
2022/08/01 08:27:48;;;;;;;5.10;1.60;;;26.00;99.90;;;;;;5074212;28;20663;-73
2022/08/01 08:30:15;;;;;;;2.00;1.90;;;26.10;99.90;;;;;;5072414;28;20626;-74
2022/08/01 08:32:42;;;;;;;3.03;2.20;;;26.00;99.90;;;;;;5073922;28;20979;-74
2022/08/01 08:35:08;;;;;;;3.00;1.77;;;26.30;99.90;;;;;;5073578;28;20622;-75
2022/08/01 08:37:35;;;;;;;1.97;1.80;;;26.00;99.90;;;;;;5073723;28;20614;-74
2022/08/01 08:40:04;;;;;;;1.47;1.37;;;26.20;99.90;;;;;;5074095;28;20571;-75
2022/08/01 08:42:30;;;;;;;1.70;1.60;;;26.40;99.90;;;;;;5073812;28;20914;-74
2022/08/01 08:44:57;;;;;;;1.60;1.50;;;26.30;99.90;;;;;;5073874;28;20575;-75
2022/08/01 08:47:25;;;;;;;6.10;1.80;;;26.60;99.90;;;;;;5074416;28;20586;-74
2022/08/01 08:49:53;;;;;;;7.43;1.70;;;26.10;99.90;;;;;;5073888;28;20947;-75
2022/08/01 08:52:21;;;;;;;1.80;1.70;;;26.20;99.90;;;;;;5073648;28;20663;-75
2022/08/01 08:54:49;;;;;;;2.10;1.90;;;26.10;99.90;;;;;;5072805;28;20579;-72
2022/08/01 08:57:19;;;;;;;3.57;1.60;;;26.40;99.90;;;;;;5073712;28;20673;-76
2022/08/01 08:59:46;;;;;;;2.43;1.83;;;26.10;99.90;;;;;;5075437;28;20578;-76
2022/08/01 09:02:12;;;;;;;4.13;2.00;;;26.20;99.90;;;;;;5073802;28;20622;-76
2022/08/01 09:04:40;;;;;;;4.37;2.57;;;26.70;99.90;;;;;;5073294;28;20977;-74
2022/08/01 09:07:07;;;;;;;2.43;1.97;;;27.40;99.90;;;;;;5073859;28;20632;-76
2022/08/01 09:09:34;;;;;;;3.70;1.70;;;27.70;99.90;;;;;;5073485;28;20695;-74
2022/08/01 09:12:00;;;;;;;2.03;1.83;;;27.20;99.90;;;;;;5073567;28;20612;-76
2022/08/01 09:14:29;;;;;;;3.47;1.87;;;26.90;99.90;;;;;;5073975;28;20579;-76
2022/08/01 09:17:08;;;;;;;3.43;3.20;;;27.50;99.90;;;;;;5073587;28;20683;-76
2022/08/01 09:19:43;;;;;;;1.80;1.70;;;27.40;99.90;;;;;;5078193;28;21251;-78
2022/08/01 09:22:12;;;;;;;2.93;1.60;;;27.80;99.90;;;;;;5079268;28;20621;-78
2022/08/01 09:24:40;;;;;;;2.00;1.73;;;27.30;99.90;;;;;;5078972;28;20638;-78
2022/08/01 09:27:19;;;;;;;1.87;1.77;;;27.60;99.90;;;;;;5073789;28;20625;-76
2022/08/01 09:29:46;;;;;;;2.10;2.00;;;27.80;99.90;;;;;;5075075;28;20638;-77
2022/08/01 09:32:12;;;;;;;1.90;1.80;;;27.70;99.90;;;;;;5075963;28;20670;-78
2022/08/01 09:34:38;;;;;;;2.60;2.23;;;27.80;99.90;;;;;;5074155;28;20805;-77
2022/08/01 09:37:06;;;;;;;2.50;2.30;;;27.40;99.90;;;;;;5073037;28;20611;-76
2022/08/01 09:39:37;;;;;;;2.80;2.23;;;27.30;99.90;;;;;;5073187;28;20566;-76
2022/08/01 09:42:24;;;;;;;1.73;1.63;;;27.00;99.90;;;;;;5073108;28;20626;-76
2022/08/01 09:44:52;;;;;;;1.70;1.60;;;27.20;99.90;;;;;;5072800;28;20624;-76
2022/08/01 09:47:23;;;;;;;1.70;1.60;;;27.10;99.90;;;;;;5072980;28;20579;-75
2022/08/01 09:49:55;;;;;;;4.13;2.00;;;27.40;99.90;;;;;;5074119;28;20626;-75
2022/08/01 09:52:26;;;;;;;1.73;1.63;;;27.90;99.90;;;;;;5080209;28;20686;-76
2022/08/01 09:55:01;;;;;;;1.70;1.60;;;27.40;99.90;;;;;;5077530;28;20618;-75
2022/08/01 09:57:29;;;;;;;2.00;1.90;;;27.20;99.90;;;;;;5076873;28;20654;-73
2022/08/01 09:59:57;;;;;;;1.90;1.80;;;27.40;99.90;;;;;;5076725;28;20586;-74
2022/08/01 10:02:40;;;;;;;4.20;2.30;;;27.60;99.90;;;;;;5076068;28;21003;-74
2022/08/01 10:05:09;;;;;;;1.73;1.63;;;27.60;99.90;;;;;;5076254;28;20642;-75
2022/08/01 10:07:55;;;;;;;2.23;2.03;;;27.10;99.90;;;;;;5076102;28;21161;-74
2022/08/01 10:10:22;;;;;;;2.70;1.87;;;27.00;99.90;;;;;;5076473;28;20578;-74
2022/08/01 10:12:51;;;;;;;6.03;2.00;;;27.10;99.90;;;;;;5076461;28;20635;-74
2022/08/01 10:15:20;;;;;;;2.03;1.93;;;27.00;99.90;;;;;;5075925;28;20643;-74
2022/08/01 10:17:58;;;;;;;2.10;1.90;;;27.10;99.90;;;;;;5076474;28;20669;-75
2022/08/01 10:20:28;;;;;;;2.10;2.00;;;27.10;99.90;;;;;;5076273;28;20567;-74
2022/08/01 10:22:55;;;;;;;2.10;2.00;;;27.60;99.90;;;;;;5076135;28;20617;-75
2022/08/01 10:25:22;;;;;;;2.13;2.03;;;27.70;99.90;;;;;;5057815;28;20710;-74
2022/08/01 10:27:52;;;;;;;2.97;2.67;;;27.90;99.90;;;;;;5075652;28;20629;-74
2022/08/01 10:30:18;;;;;;;2.13;1.90;;;27.50;99.90;;;;;;5075962;28;20570;-76
2022/08/01 10:32:47;;;;;;;11.17;2.37;;;27.80;99.90;;;;;;5082901;28;20629;-75
2022/08/01 10:35:17;;;;;;;2.87;2.67;;;27.20;99.90;;;;;;5076525;28;20586;-77
2022/08/01 10:37:50;;;;;;;3.00;2.30;;;27.40;99.90;;;;;;5077104;28;20629;-78
2022/08/01 10:40:17;;;;;;;2.10;2.00;;;27.80;99.90;;;;;;5076039;28;20578;-74
2022/08/01 10:42:44;;;;;;;2.03;1.90;;;27.50;99.90;;;;;;5075808;28;20613;-74
2022/08/01 10:45:14;;;;;;;2.07;1.97;;;27.20;99.90;;;;;;5075623;28;20586;-74
2022/08/01 10:47:51;;;;;;;1.73;1.63;;;27.50;99.90;;;;;;5075850;28;20667;-74
2022/08/01 10:50:24;;;;;;;2.90;2.40;;;28.20;99.90;;;;;;5076233;28;20598;-74
2022/08/01 10:53:12;;;;;;;2.57;2.37;;;28.00;99.90;;;;;;5076691;28;20586;-76
2022/08/01 10:55:55;;;;;;;3.57;2.30;;;28.70;99.90;;;;;;5075983;28;20569;-76
2022/08/01 10:58:36;;;;;;;3.90;2.67;;;28.60;99.90;;;;;;5075370;28;20578;-76
2022/08/01 11:01:20;;;;;;;2.70;2.50;;;28.50;99.90;;;;;;5075064;28;20988;-76
2022/08/01 11:04:02;;;;;;;2.27;2.17;;;29.50;99.90;;;;;;5075716;28;20578;-75
2022/08/01 11:06:34;;;;;;;2.13;1.97;;;29.00;99.90;;;;;;5077336;28;20973;-75
2022/08/01 11:09:25;;;;;;;1.80;1.70;;;28.60;99.90;;;;;;5076519;28;20935;-76
2022/08/01 11:12:06;;;;;;;2.27;2.07;;;29.10;99.90;;;;;;5075196;28;20622;-76
2022/08/01 11:14:34;;;;;;;2.47;1.87;;;28.30;99.90;;;;;;5073985;28;20625;-77
2022/08/01 11:17:30;;;;;;;2.27;2.17;;;28.00;99.90;;;;;;5076046;28;20649;-77
2022/08/01 11:20:14;;;;;;;2.07;1.70;;;28.20;99.90;;;;;;5073242;28;20633;-74
2022/08/01 11:23:10;;;;;;;2.40;2.07;;;28.40;99.90;;;;;;5075761;28;20622;-74
2022/08/01 11:25:37;;;;;;;2.10;1.90;;;29.00;99.90;;;;;;5081787;28;20694;-74
2022/08/01 11:28:19;;;;;;;5.73;1.80;;;30.50;99.90;;;;;;5083513;28;20618;-75
2022/08/01 11:30:47;;;;;;;2.77;2.67;;;30.30;99.90;;;;;;5087989;28;20561;-76
2022/08/01 11:33:16;;;;;;;3.27;2.10;;;30.80;99.90;;;;;;5084146;28;20645;-76
2022/08/01 11:36:10;;;;;;;1.90;1.80;;;30.30;99.90;;;;;;5078452;28;20575;-75
2022/08/01 11:38:47;;;;;;;2.03;1.93;;;30.40;99.90;;;;;;5075563;28;20614;-75
2022/08/01 11:41:31;;;;;;;4.50;2.00;;;29.60;99.90;;;;;;5074750;28;20590;-73
2022/08/01 11:44:00;;;;;;;2.10;2.00;;;29.50;99.90;;;;;;5078537;28;20637;-77
2022/08/01 11:46:55;;;;;;;1.60;1.50;;;29.40;99.90;;;;;;5076492;28;20575;-76
2022/08/01 11:49:54;;;;;;;1.80;1.70;;;29.50;99.90;;;;;;5074908;28;20669;-73
2022/08/01 11:52:29;;;;;;;3.53;1.90;;;29.00;99.90;;;;;;5073823;28;21212;-76
2022/08/01 11:55:02;;;;;;;1.87;1.77;;;29.20;99.90;;;;;;5075800;28;21203;-77
2022/08/01 11:57:33;;;;;;;2.13;1.73;;;29.40;99.90;;;;;;5076905;28;21016;-77
2022/08/01 12:00:00;;;;;;;2.93;1.97;;;29.70;99.90;;;;;;5075204;28;20611;-77
2022/08/01 12:02:33;;;;;;;1.83;1.73;;;29.30;99.90;;;;;;5082452;28;20629;-75
2022/08/01 12:05:07;;;;;;;2.10;1.90;;;29.20;99.90;;;;;;5077014;28;20638;-77
2022/08/01 12:07:35;;;;;;;1.77;1.67;;;28.90;99.90;;;;;;5078757;28;20622;-76
2022/08/01 12:10:04;;;;;;;1.90;1.80;;;29.50;99.90;;;;;;5074930;28;20675;-76
2022/08/01 12:12:32;;;;;;;4.37;1.70;;;29.20;99.90;;;;;;5075897;28;20577;-76
2022/08/01 12:15:08;;;;;;;1.83;1.73;;;29.50;99.90;;;;;;5075397;28;20574;-74
2022/08/01 12:17:46;;;;;;;2.03;1.93;;;29.40;99.90;;;;;;5074119;28;20669;-74
2022/08/01 12:20:19;;;;;;;2.50;1.70;;;30.50;99.90;;;;;;5074475;28;20576;-74
2022/08/01 12:22:46;;;;;;;2.10;1.90;;;31.70;99.90;;;;;;5074612;28;20563;-76
2022/08/01 12:25:16;;;;;;;1.53;1.43;;;29.90;99.90;;;;;;5075307;28;20634;-75
2022/08/01 12:27:45;;;;;;;1.97;1.77;;;29.70;99.90;;;;;;5075321;28;20622;-75
2022/08/01 12:30:14;;;;;;;5.90;1.73;;;30.30;99.90;;;;;;5075797;28;20578;-74
2022/08/01 12:32:44;;;;;;;1.90;1.70;;;30.30;99.90;;;;;;5075729;28;20621;-75
2022/08/01 12:35:14;;;;;;;1.90;1.80;;;31.30;99.90;;;;;;5078708;28;20594;-75
2022/08/01 12:38:02;;;;;;;2.10;2.00;;;31.40;99.90;;;;;;5074365;28;20661;-76
2022/08/01 12:40:39;;;;;;;3.07;1.77;;;31.90;99.90;;;;;;5073245;28;20668;-76
2022/08/01 12:43:08;;;;;;;2.50;1.90;;;32.10;99.90;;;;;;5076110;28;20582;-77
2022/08/01 12:45:43;;;;;;;2.23;1.93;;;31.20;99.90;;;;;;5074957;28;20567;-74
2022/08/01 12:48:14;;;;;;;2.00;1.90;;;29.40;99.90;;;;;;5074112;28;20617;-77
2022/08/01 12:50:47;;;;;;;2.43;2.23;;;29.70;99.90;;;;;;5075295;28;21029;-75
2022/08/01 12:53:14;;;;;;;1.90;1.80;;;29.30;99.90;;;;;;5075082;28;20613;-76
2022/08/01 12:55:59;;;;;;;2.23;2.00;;;29.60;99.90;;;;;;5074938;28;20622;-77
2022/08/01 12:58:33;;;;;;;3.33;1.90;;;29.30;99.90;;;;;;5072781;28;20630;-70
2022/08/01 13:01:13;;;;;;;1.93;1.83;;;30.40;99.90;;;;;;5073403;28;20632;-73
2022/08/01 13:03:40;;;;;;;2.50;1.60;;;29.70;99.90;;;;;;5073952;28;20577;-72